sensor_id;sensor_type;location;lat;lon;timestamp;pressure;altitude;pressure_sealevel;temperature;humidity
64698;BME280;51124;53.394;-6.294;2023-07-20T00:00:19;101194.04;;;22.55;13.35
64698;BME280;51124;53.394;-6.294;2023-07-20T00:02:44;101195.39;;;22.54;13.57
64698;BME280;51124;53.394;-6.294;2023-07-20T00:05:11;101191.22;;;21.91;13.67
64698;BME280;51124;53.394;-6.294;2023-07-20T00:07:39;101193.80;;;21.99;13.63
64698;BME280;51124;53.394;-6.294;2023-07-20T00:10:07;101198.22;;;22.35;13.57
64698;BME280;51124;53.394;-6.294;2023-07-20T00:12:34;101198.82;;;21.77;13.78
64698;BME280;51124;53.394;-6.294;2023-07-20T00:15:02;101196.11;;;22.09;13.80
64698;BME280;51124;53.394;-6.294;2023-07-20T00:17:29;101194.98;;;21.91;14.00
64698;BME280;51124;53.394;-6.294;2023-07-20T00:19:57;101196.22;;;21.55;13.86
64698;BME280;51124;53.394;-6.294;2023-07-20T00:22:24;101196.32;;;21.75;13.98
64698;BME280;51124;53.394;-6.294;2023-07-20T00:24:52;101196.15;;;21.87;13.88
64698;BME280;51124;53.394;-6.294;2023-07-20T00:27:19;101195.94;;;22.32;13.62
64698;BME280;51124;53.394;-6.294;2023-07-20T00:29:46;101192.76;;;21.48;13.82
64698;BME280;51124;53.394;-6.294;2023-07-20T00:32:14;101192.74;;;22.38;13.83
64698;BME280;51124;53.394;-6.294;2023-07-20T00:34:41;101192.54;;;22.33;13.82
64698;BME280;51124;53.394;-6.294;2023-07-20T00:37:08;101192.92;;;21.34;14.00
64698;BME280;51124;53.394;-6.294;2023-07-20T00:39:36;101194.63;;;21.25;14.03
64698;BME280;51124;53.394;-6.294;2023-07-20T00:42:03;101197.31;;;21.17;13.81
64698;BME280;51124;53.394;-6.294;2023-07-20T00:44:31;101197.22;;;20.48;13.51
64698;BME280;51124;53.394;-6.294;2023-07-20T00:46:58;101189.15;;;19.80;13.11
64698;BME280;51124;53.394;-6.294;2023-07-20T00:49:26;101188.10;;;19.34;12.79
64698;BME280;51124;53.394;-6.294;2023-07-20T00:51:53;101187.29;;;19.73;12.57
64698;BME280;51124;53.394;-6.294;2023-07-20T00:54:20;101187.54;;;19.58;12.41
64698;BME280;51124;53.394;-6.294;2023-07-20T00:56:48;101187.53;;;19.48;12.04
64698;BME280;51124;53.394;-6.294;2023-07-20T00:59:16;101188.09;;;19.99;12.01
64698;BME280;51124;53.394;-6.294;2023-07-20T01:01:43;101184.68;;;20.26;11.75
64698;BME280;51124;53.394;-6.294;2023-07-20T01:04:10;101188.66;;;19.63;11.97
64698;BME280;51124;53.394;-6.294;2023-07-20T01:06:45;101188.72;;;19.64;12.07
64698;BME280;51124;53.394;-6.294;2023-07-20T01:09:11;101184.19;;;19.89;11.80
64698;BME280;51124;53.394;-6.294;2023-07-20T01:11:47;101184.97;;;19.77;11.68
64698;BME280;51124;53.394;-6.294;2023-07-20T01:14:07;101185.09;;;20.51;11.53
64698;BME280;51124;53.394;-6.294;2023-07-20T01:16:35;101187.14;;;19.76;11.60
64698;BME280;51124;53.394;-6.294;2023-07-20T01:19:02;101188.39;;;19.30;11.64
64698;BME280;51124;53.394;-6.294;2023-07-20T01:21:34;101186.57;;;19.35;11.33
64698;BME280;51124;53.394;-6.294;2023-07-20T01:24:24;101188.06;;;19.52;11.65
64698;BME280;51124;53.394;-6.294;2023-07-20T01:26:54;101185.61;;;19.27;11.57
64698;BME280;51124;53.394;-6.294;2023-07-20T01:29:17;101185.82;;;19.50;11.45
64698;BME280;51124;53.394;-6.294;2023-07-20T01:31:39;101184.55;;;19.34;11.38
64698;BME280;51124;53.394;-6.294;2023-07-20T01:34:10;101183.46;;;20.07;11.30
64698;BME280;51124;53.394;-6.294;2023-07-20T01:36:39;101180.50;;;19.48;11.42
64698;BME280;51124;53.394;-6.294;2023-07-20T01:39:08;101177.12;;;19.84;11.26
64698;BME280;51124;53.394;-6.294;2023-07-20T01:41:36;101174.71;;;19.32;11.51
64698;BME280;51124;53.394;-6.294;2023-07-20T01:44:05;101176.44;;;19.09;11.40
64698;BME280;51124;53.394;-6.294;2023-07-20T01:46:32;101174.29;;;19.72;11.15
64698;BME280;51124;53.394;-6.294;2023-07-20T01:49:00;101169.41;;;20.30;11.17
64698;BME280;51124;53.394;-6.294;2023-07-20T01:51:27;101167.42;;;19.46;11.16
64698;BME280;51124;53.394;-6.294;2023-07-20T01:53:54;101166.57;;;20.07;11.04
64698;BME280;51124;53.394;-6.294;2023-07-20T01:56:22;101161.85;;;19.86;11.23
64698;BME280;51124;53.394;-6.294;2023-07-20T01:58:49;101164.82;;;19.89;11.40
64698;BME280;51124;53.394;-6.294;2023-07-20T02:01:16;101164.01;;;19.34;11.40
64698;BME280;51124;53.394;-6.294;2023-07-20T02:03:43;101163.13;;;19.75;11.33
64698;BME280;51124;53.394;-6.294;2023-07-20T02:06:11;101161.05;;;20.34;11.19
64698;BME280;51124;53.394;-6.294;2023-07-20T02:08:38;101160.25;;;19.56;11.23
64698;BME280;51124;53.394;-6.294;2023-07-20T02:11:05;101159.01;;;20.04;11.19
64698;BME280;51124;53.394;-6.294;2023-07-20T02:13:32;101160.68;;;19.74;11.37
64698;BME280;51124;53.394;-6.294;2023-07-20T02:16:00;101157.22;;;20.18;11.31
64698;BME280;51124;53.394;-6.294;2023-07-20T02:18:27;101157.67;;;19.25;11.54
64698;BME280;51124;53.394;-6.294;2023-07-20T02:20:55;101155.19;;;20.02;11.26
64698;BME280;51124;53.394;-6.294;2023-07-20T02:23:22;101157.64;;;18.90;11.69
64698;BME280;51124;53.394;-6.294;2023-07-20T02:25:49;101152.47;;;20.44;11.36
64698;BME280;51124;53.394;-6.294;2023-07-20T02:28:16;101152.65;;;19.94;11.49
64698;BME280;51124;53.394;-6.294;2023-07-20T02:30:44;101153.24;;;20.08;11.42
64698;BME280;51124;53.394;-6.294;2023-07-20T02:33:11;101154.50;;;19.33;11.55
64698;BME280;51124;53.394;-6.294;2023-07-20T02:35:40;101151.71;;;19.76;11.32
64698;BME280;51124;53.394;-6.294;2023-07-20T02:38:07;101150.66;;;19.96;11.27
64698;BME280;51124;53.394;-6.294;2023-07-20T02:40:34;101148.53;;;19.69;11.11
64698;BME280;51124;53.394;-6.294;2023-07-20T02:43:02;101147.64;;;22.14;11.21
64698;BME280;51124;53.394;-6.294;2023-07-20T02:45:29;101146.78;;;21.63;11.85
64698;BME280;51124;53.394;-6.294;2023-07-20T02:47:56;101146.84;;;21.04;12.11
64698;BME280;51124;53.394;-6.294;2023-07-20T02:50:24;101145.08;;;19.86;12.12
64698;BME280;51124;53.394;-6.294;2023-07-20T02:52:52;101141.65;;;22.89;12.26
64698;BME280;51124;53.394;-6.294;2023-07-20T02:55:19;101142.94;;;21.64;12.86
64698;BME280;51124;53.394;-6.294;2023-07-20T02:57:47;101140.86;;;21.71;13.37
64698;BME280;51124;53.394;-6.294;2023-07-20T03:00:15;101139.36;;;22.13;13.31
64698;BME280;51124;53.394;-6.294;2023-07-20T03:02:42;101140.69;;;22.51;13.31
64698;BME280;51124;53.394;-6.294;2023-07-20T03:05:10;101142.87;;;22.06;13.56
64698;BME280;51124;53.394;-6.294;2023-07-20T03:07:37;101139.33;;;22.21;13.42
64698;BME280;51124;53.394;-6.294;2023-07-20T03:10:06;101140.51;;;21.79;13.71
64698;BME280;51124;53.394;-6.294;2023-07-20T03:12:33;101140.44;;;21.01;13.70
64698;BME280;51124;53.394;-6.294;2023-07-20T03:15:01;101139.67;;;22.17;13.71
64698;BME280;51124;53.394;-6.294;2023-07-20T03:17:28;101135.22;;;21.81;13.83
64698;BME280;51124;53.394;-6.294;2023-07-20T03:19:56;101130.95;;;22.12;13.63
64698;BME280;51124;53.394;-6.294;2023-07-20T03:22:23;101131.09;;;21.75;13.69
64698;BME280;51124;53.394;-6.294;2023-07-20T03:24:51;101130.87;;;21.96;13.93
64698;BME280;51124;53.394;-6.294;2023-07-20T03:27:18;101127.77;;;21.58;13.83
64698;BME280;51124;53.394;-6.294;2023-07-20T03:29:45;101130.50;;;21.89;13.74
64698;BME280;51124;53.394;-6.294;2023-07-20T03:32:13;101130.79;;;21.55;13.91
64698;BME280;51124;53.394;-6.294;2023-07-20T03:34:40;101132.52;;;22.02;14.01
64698;BME280;51124;53.394;-6.294;2023-07-20T03:37:08;101131.15;;;20.81;14.11
64698;BME280;51124;53.394;-6.294;2023-07-20T03:39:35;101132.40;;;21.15;14.02
64698;BME280;51124;53.394;-6.294;2023-07-20T03:42:03;101132.15;;;21.72;13.91
64698;BME280;51124;53.394;-6.294;2023-07-20T03:44:30;101131.17;;;19.18;13.82
64698;BME280;51124;53.394;-6.294;2023-07-20T03:46:57;101130.40;;;19.33;13.58
64698;BME280;51124;53.394;-6.294;2023-07-20T03:49:24;101127.66;;;19.69;12.97
64698;BME280;51124;53.394;-6.294;2023-07-20T03:51:51;101127.96;;;19.48;12.75
64698;BME280;51124;53.394;-6.294;2023-07-20T03:54:19;101129.81;;;20.84;12.44
64698;BME280;51124;53.394;-6.294;2023-07-20T03:56:46;101130.94;;;20.14;12.23
64698;BME280;51124;53.394;-6.294;2023-07-20T03:59:14;101132.05;;;19.26;12.14
64698;BME280;51124;53.394;-6.294;2023-07-20T04:01:41;101127.60;;;19.51;12.00
64698;BME280;51124;53.394;-6.294;2023-07-20T04:04:09;101127.31;;;19.46;12.09
64698;BME280;51124;53.394;-6.294;2023-07-20T04:06:37;101125.19;;;19.26;11.84
64698;BME280;51124;53.394;-6.294;2023-07-20T04:09:05;101124.05;;;19.32;11.85
64698;BME280;51124;53.394;-6.294;2023-07-20T04:11:32;101126.12;;;19.48;11.80
64698;BME280;51124;53.394;-6.294;2023-07-20T04:14:00;101127.34;;;20.17;11.42
64698;BME280;51124;53.394;-6.294;2023-07-20T04:16:27;101125.06;;;19.26;11.65
64698;BME280;51124;53.394;-6.294;2023-07-20T04:18:56;101122.77;;;19.07;11.68
64698;BME280;51124;53.394;-6.294;2023-07-20T04:21:27;101122.36;;;20.12;11.11
64698;BME280;51124;53.394;-6.294;2023-07-20T04:23:54;101125.13;;;19.32;11.40
64698;BME280;51124;53.394;-6.294;2023-07-20T04:26:21;101125.41;;;18.23;11.72
64698;BME280;51124;53.394;-6.294;2023-07-20T04:28:48;101126.89;;;19.57;11.44
64698;BME280;51124;53.394;-6.294;2023-07-20T04:31:16;101128.63;;;19.48;11.33
64698;BME280;51124;53.394;-6.294;2023-07-20T04:33:44;101132.27;;;19.49;11.37
64698;BME280;51124;53.394;-6.294;2023-07-20T04:36:11;101132.28;;;19.40;11.18
64698;BME280;51124;53.394;-6.294;2023-07-20T04:38:38;101129.67;;;19.10;11.42
64698;BME280;51124;53.394;-6.294;2023-07-20T04:41:05;101129.14;;;20.55;11.02
64698;BME280;51124;53.394;-6.294;2023-07-20T04:43:33;101130.93;;;19.19;11.41
64698;BME280;51124;53.394;-6.294;2023-07-20T04:46:00;101130.52;;;19.97;11.18
64698;BME280;51124;53.394;-6.294;2023-07-20T04:48:27;101124.82;;;20.11;11.02
64698;BME280;51124;53.394;-6.294;2023-07-20T04:50:54;101126.09;;;19.22;11.35
64698;BME280;51124;53.394;-6.294;2023-07-20T04:53:22;101125.94;;;19.66;10.99
64698;BME280;51124;53.394;-6.294;2023-07-20T04:55:50;101123.30;;;19.57;10.92
64698;BME280;51124;53.394;-6.294;2023-07-20T04:58:18;101126.67;;;19.53;10.82
64698;BME280;51124;53.394;-6.294;2023-07-20T05:00:45;101122.52;;;20.87;10.66
64698;BME280;51124;53.394;-6.294;2023-07-20T05:03:12;101120.29;;;20.14;10.76
64698;BME280;51124;53.394;-6.294;2023-07-20T05:05:40;101119.19;;;19.80;10.73
64698;BME280;51124;53.394;-6.294;2023-07-20T05:08:07;101116.89;;;20.08;10.49
64698;BME280;51124;53.394;-6.294;2023-07-20T05:10:34;101117.48;;;21.10;10.41
64698;BME280;51124;53.394;-6.294;2023-07-20T05:13:02;101116.32;;;19.95;10.66
64698;BME280;51124;53.394;-6.294;2023-07-20T05:15:29;101114.99;;;19.87;10.57
64698;BME280;51124;53.394;-6.294;2023-07-20T05:17:56;101116.41;;;20.42;10.44
64698;BME280;51124;53.394;-6.294;2023-07-20T05:20:23;101117.99;;;20.78;10.42
64698;BME280;51124;53.394;-6.294;2023-07-20T05:22:50;101114.71;;;19.96;10.62
64698;BME280;51124;53.394;-6.294;2023-07-20T05:25:18;101116.84;;;20.35;10.89
64698;BME280;51124;53.394;-6.294;2023-07-20T05:27:45;101116.08;;;20.62;10.71
64698;BME280;51124;53.394;-6.294;2023-07-20T05:30:13;101114.13;;;20.95;10.85
64698;BME280;51124;53.394;-6.294;2023-07-20T05:32:40;101111.96;;;19.86;11.01
64698;BME280;51124;53.394;-6.294;2023-07-20T05:35:08;101111.78;;;19.14;11.05
64698;BME280;51124;53.394;-6.294;2023-07-20T05:37:35;101109.22;;;19.33;11.09
64698;BME280;51124;53.394;-6.294;2023-07-20T05:40:03;101111.94;;;20.05;10.85
64698;BME280;51124;53.394;-6.294;2023-07-20T05:42:30;101107.29;;;20.04;10.71
64698;BME280;51124;53.394;-6.294;2023-07-20T05:44:57;101106.64;;;19.21;10.69
64698;BME280;51124;53.394;-6.294;2023-07-20T05:47:25;101106.19;;;21.94;11.14
64698;BME280;51124;53.394;-6.294;2023-07-20T05:49:52;101102.06;;;21.59;11.35
64698;BME280;51124;53.394;-6.294;2023-07-20T05:52:19;101102.32;;;21.20;11.31
64698;BME280;51124;53.394;-6.294;2023-07-20T05:54:47;101101.72;;;19.91;11.52
64698;BME280;51124;53.394;-6.294;2023-07-20T05:57:14;101100.40;;;24.03;11.41
64698;BME280;51124;53.394;-6.294;2023-07-20T05:59:42;101102.13;;;23.87;11.90
64698;BME280;51124;53.394;-6.294;2023-07-20T06:02:10;101101.39;;;22.75;12.54
64698;BME280;51124;53.394;-6.294;2023-07-20T06:04:38;101102.43;;;21.97;12.92
64698;BME280;51124;53.394;-6.294;2023-07-20T06:07:06;101106.70;;;21.63;13.05
64698;BME280;51124;53.394;-6.294;2023-07-20T06:09:34;101109.18;;;23.19;12.65
64698;BME280;51124;53.394;-6.294;2023-07-20T06:12:01;101119.09;;;22.71;13.16
64698;BME280;51124;53.394;-6.294;2023-07-20T06:14:29;101118.35;;;21.77;13.27
64698;BME280;51124;53.394;-6.294;2023-07-20T06:16:56;101119.17;;;22.24;13.06
64698;BME280;51124;53.394;-6.294;2023-07-20T06:19:22;101119.83;;;22.15;13.26
64698;BME280;51124;53.394;-6.294;2023-07-20T06:21:47;101125.18;;;22.50;13.13
64698;BME280;51124;53.394;-6.294;2023-07-20T06:24:12;101128.57;;;22.07;13.16
64698;BME280;51124;53.394;-6.294;2023-07-20T06:26:38;101132.21;;;21.81;13.29
64698;BME280;51124;53.394;-6.294;2023-07-20T06:29:03;101134.16;;;22.15;13.12
64698;BME280;51124;53.394;-6.294;2023-07-20T06:31:29;101136.00;;;22.10;13.12
64698;BME280;51124;53.394;-6.294;2023-07-20T06:33:54;101136.44;;;21.73;13.28
64698;BME280;51124;53.394;-6.294;2023-07-20T06:36:19;101138.57;;;22.70;13.20
64698;BME280;51124;53.394;-6.294;2023-07-20T06:38:44;101137.51;;;22.02;13.21
64698;BME280;51124;53.394;-6.294;2023-07-20T06:41:10;101137.08;;;22.61;13.21
64698;BME280;51124;53.394;-6.294;2023-07-20T06:43:35;101136.93;;;21.98;13.28
64698;BME280;51124;53.394;-6.294;2023-07-20T06:46:01;101142.88;;;22.43;12.64
64698;BME280;51124;53.394;-6.294;2023-07-20T06:48:26;101145.83;;;21.24;12.34
64698;BME280;51124;53.394;-6.294;2023-07-20T06:50:51;101148.16;;;19.77;12.10
64698;BME280;51124;53.394;-6.294;2023-07-20T06:53:16;101147.25;;;20.39;11.79
64698;BME280;51124;53.394;-6.294;2023-07-20T06:55:43;101148.64;;;20.25;11.45
64698;BME280;51124;53.394;-6.294;2023-07-20T06:58:08;101144.63;;;21.16;11.20
64698;BME280;51124;53.394;-6.294;2023-07-20T07:00:33;101146.19;;;19.72;11.22
64698;BME280;51124;53.394;-6.294;2023-07-20T07:02:58;101151.76;;;19.25;11.30
64698;BME280;51124;53.394;-6.294;2023-07-20T07:05:26;101146.04;;;19.86;10.97
64698;BME280;51124;53.394;-6.294;2023-07-20T07:07:51;101151.83;;;18.33;11.71
64698;BME280;51124;53.394;-6.294;2023-07-20T07:10:16;101148.37;;;19.77;11.16
64698;BME280;51124;53.394;-6.294;2023-07-20T07:12:42;101148.53;;;20.89;10.49
64698;BME280;51124;53.394;-6.294;2023-07-20T07:15:08;101147.97;;;18.75;11.06
64698;BME280;51124;53.394;-6.294;2023-07-20T07:17:33;101162.80;;;13.83;13.65
64698;BME280;51124;53.394;-6.294;2023-07-20T07:19:58;101174.60;;;9.28;16.62
64698;BME280;51124;53.394;-6.294;2023-07-20T07:22:24;101170.65;;;9.91;17.15
64698;BME280;51124;53.394;-6.294;2023-07-20T07:24:49;101165.55;;;10.79;16.57
64698;BME280;51124;53.394;-6.294;2023-07-20T07:27:14;101169.86;;;8.51;18.85
64698;BME280;51124;53.394;-6.294;2023-07-20T07:29:39;101170.98;;;8.64;18.66
64698;BME280;51124;53.394;-6.294;2023-07-20T07:32:05;101168.44;;;6.83;18.27
64698;BME280;51124;53.394;-6.294;2023-07-20T07:34:31;101166.79;;;8.38;18.30
64698;BME280;51124;53.394;-6.294;2023-07-20T07:36:56;101165.77;;;11.04;17.35
64698;BME280;51124;53.394;-6.294;2023-07-20T07:39:21;101168.89;;;7.31;19.94
64698;BME280;51124;53.394;-6.294;2023-07-20T07:41:46;101166.36;;;10.09;17.80
64698;BME280;51124;53.394;-6.294;2023-07-20T07:44:11;101165.95;;;8.34;18.57
64698;BME280;51124;53.394;-6.294;2023-07-20T07:46:36;101170.30;;;6.88;19.60
64698;BME280;51124;53.394;-6.294;2023-07-20T07:49:02;101173.56;;;6.29;20.18
64698;BME280;51124;53.394;-6.294;2023-07-20T07:51:27;101172.50;;;6.00;19.27
64698;BME280;51124;53.394;-6.294;2023-07-20T07:53:52;101172.01;;;6.21;20.12
64698;BME280;51124;53.394;-6.294;2023-07-20T07:56:18;101165.29;;;7.78;20.26
64698;BME280;51124;53.394;-6.294;2023-07-20T07:58:43;101164.21;;;8.88;19.75
64698;BME280;51124;53.394;-6.294;2023-07-20T08:01:08;101163.51;;;8.85;20.09
64698;BME280;51124;53.394;-6.294;2023-07-20T08:03:33;101175.32;;;5.73;22.18
64698;BME280;51124;53.394;-6.294;2023-07-20T08:05:59;101173.00;;;6.75;22.07
64698;BME280;51124;53.394;-6.294;2023-07-20T08:08:22;101172.29;;;6.78;21.72
64698;BME280;51124;53.394;-6.294;2023-07-20T08:10:55;101168.03;;;8.27;19.93
64698;BME280;51124;53.394;-6.294;2023-07-20T08:13:29;101165.60;;;9.49;19.02
64698;BME280;51124;53.394;-6.294;2023-07-20T08:16:02;101165.83;;;11.60;17.23
64698;BME280;51124;53.394;-6.294;2023-07-20T08:18:35;101155.41;;;15.04;14.75
64698;BME280;51124;53.394;-6.294;2023-07-20T08:21:09;101153.22;;;14.81;13.88
64698;BME280;51124;53.394;-6.294;2023-07-20T08:23:42;101167.44;;;9.33;17.48
64698;BME280;51124;53.394;-6.294;2023-07-20T08:26:16;101161.68;;;11.66;16.30
64698;BME280;51124;53.394;-6.294;2023-07-20T08:28:49;101161.20;;;9.58;17.28
64698;BME280;51124;53.394;-6.294;2023-07-20T08:31:22;101160.28;;;10.49;17.02
64698;BME280;51124;53.394;-6.294;2023-07-20T08:33:56;101159.36;;;11.81;15.25
64698;BME280;51124;53.394;-6.294;2023-07-20T08:36:29;101160.31;;;11.76;14.84
64698;BME280;51124;53.394;-6.294;2023-07-20T08:39:02;101159.08;;;12.37;15.47
64698;BME280;51124;53.394;-6.294;2023-07-20T08:41:36;101165.34;;;10.80;16.45
64698;BME280;51124;53.394;-6.294;2023-07-20T08:44:10;101163.79;;;12.77;15.40
64698;BME280;51124;53.394;-6.294;2023-07-20T08:46:44;101169.55;;;9.31;16.57
64698;BME280;51124;53.394;-6.294;2023-07-20T08:49:19;101167.17;;;14.45;16.05
64698;BME280;51124;53.394;-6.294;2023-07-20T08:51:52;101165.64;;;11.74;16.97
64698;BME280;51124;53.394;-6.294;2023-07-20T08:54:30;101167.19;;;11.38;17.66
64698;BME280;51124;53.394;-6.294;2023-07-20T08:56:54;101160.57;;;12.43;16.28
64698;BME280;51124;53.394;-6.294;2023-07-20T08:59:24;101159.09;;;16.13;15.21
64698;BME280;51124;53.394;-6.294;2023-07-20T09:01:50;101158.42;;;15.21;16.30
64698;BME280;51124;53.394;-6.294;2023-07-20T09:04:17;101167.34;;;11.93;19.16
64698;BME280;51124;53.394;-6.294;2023-07-20T09:06:44;101158.65;;;14.52;17.82
64698;BME280;51124;53.394;-6.294;2023-07-20T09:09:10;101154.28;;;15.77;16.58
64698;BME280;51124;53.394;-6.294;2023-07-20T09:11:35;101153.78;;;15.54;16.28
64698;BME280;51124;53.394;-6.294;2023-07-20T09:14:05;101151.30;;;13.95;17.15
64698;BME280;51124;53.394;-6.294;2023-07-20T09:16:31;101150.62;;;14.68;17.21
64698;BME280;51124;53.394;-6.294;2023-07-20T09:18:58;101146.78;;;15.95;17.38
64698;BME280;51124;53.394;-6.294;2023-07-20T09:21:23;101147.80;;;14.88;17.44
64698;BME280;51124;53.394;-6.294;2023-07-20T09:23:57;101146.65;;;14.35;17.02
64698;BME280;51124;53.394;-6.294;2023-07-20T09:26:22;101148.22;;;14.75;16.65
64698;BME280;51124;53.394;-6.294;2023-07-20T09:28:49;101143.88;;;15.28;16.27
64698;BME280;51124;53.394;-6.294;2023-07-20T09:31:17;101145.76;;;13.72;17.87
64698;BME280;51124;53.394;-6.294;2023-07-20T09:33:42;101156.20;;;10.94;21.03
64698;BME280;51124;53.394;-6.294;2023-07-20T09:36:10;101148.52;;;13.61;19.80
64698;BME280;51124;53.394;-6.294;2023-07-20T09:38:35;101154.06;;;13.13;20.09
64698;BME280;51124;53.394;-6.294;2023-07-20T09:41:01;101149.20;;;14.28;19.94
64698;BME280;51124;53.394;-6.294;2023-07-20T09:43:29;101153.64;;;12.80;20.19
64698;BME280;51124;53.394;-6.294;2023-07-20T09:45:58;101150.93;;;12.82;20.06
64698;BME280;51124;53.394;-6.294;2023-07-20T09:48:25;101146.29;;;15.16;19.61
64698;BME280;51124;53.394;-6.294;2023-07-20T09:50:51;101150.92;;;10.13;20.42
64698;BME280;51124;53.394;-6.294;2023-07-20T09:53:17;101142.25;;;11.38;19.67
64698;BME280;51124;53.394;-6.294;2023-07-20T09:55:45;101141.51;;;10.96;19.15
64698;BME280;51124;53.394;-6.294;2023-07-20T09:58:10;101136.42;;;12.80;16.91
64698;BME280;51124;53.394;-6.294;2023-07-20T10:00:39;101127.69;;;16.41;14.84
64698;BME280;51124;53.394;-6.294;2023-07-20T10:03:08;101127.93;;;15.29;15.19
64698;BME280;51124;53.394;-6.294;2023-07-20T10:05:43;101135.22;;;10.95;16.31
64698;BME280;51124;53.394;-6.294;2023-07-20T10:08:04;101137.76;;;9.92;17.34
64698;BME280;51124;53.394;-6.294;2023-07-20T10:10:33;101131.28;;;12.28;15.79
64698;BME280;51124;53.394;-6.294;2023-07-20T10:13:00;101134.87;;;9.32;17.50
64698;BME280;51124;53.394;-6.294;2023-07-20T10:15:28;101133.93;;;11.93;16.26
64698;BME280;51124;53.394;-6.294;2023-07-20T10:17:59;101134.90;;;10.15;17.69
64698;BME280;51124;53.394;-6.294;2023-07-20T10:20:28;101131.29;;;10.95;17.61
64698;BME280;51124;53.394;-6.294;2023-07-20T10:22:55;101128.66;;;11.69;17.04
64698;BME280;51124;53.394;-6.294;2023-07-20T10:25:22;101133.30;;;11.10;17.19
64698;BME280;51124;53.394;-6.294;2023-07-20T10:27:48;101131.60;;;12.46;16.23
64698;BME280;51124;53.394;-6.294;2023-07-20T10:30:13;101142.73;;;8.30;18.96
64698;BME280;51124;53.394;-6.294;2023-07-20T10:32:40;101154.71;;;5.66;22.16
64698;BME280;51124;53.394;-6.294;2023-07-20T10:35:13;101156.33;;;6.07;23.41
64698;BME280;51124;53.394;-6.294;2023-07-20T10:37:48;101168.16;;;7.39;25.96
64698;BME280;51124;53.394;-6.294;2023-07-20T10:40:31;101161.59;;;8.41;23.77
64698;BME280;51124;53.394;-6.294;2023-07-20T10:42:48;101163.15;;;7.69;23.54
64698;BME280;51124;53.394;-6.294;2023-07-20T10:45:14;101157.05;;;8.03;22.84
64698;BME280;51124;53.394;-6.294;2023-07-20T10:47:46;101148.67;;;10.78;20.67
64698;BME280;51124;53.394;-6.294;2023-07-20T10:50:13;101155.27;;;8.91;21.43
64698;BME280;51124;53.394;-6.294;2023-07-20T10:52:39;101152.14;;;8.08;21.74
64698;BME280;51124;53.394;-6.294;2023-07-20T10:55:13;101150.69;;;9.56;20.29
64698;BME280;51124;53.394;-6.294;2023-07-20T10:57:39;101152.80;;;7.68;22.33
64698;BME280;51124;53.394;-6.294;2023-07-20T11:00:09;101146.17;;;8.83;20.37
64698;BME280;51124;53.394;-6.294;2023-07-20T11:02:43;101144.96;;;8.84;20.77
64698;BME280;51124;53.394;-6.294;2023-07-20T11:05:12;101138.59;;;10.51;19.49
64698;BME280;51124;53.394;-6.294;2023-07-20T11:07:38;101137.93;;;9.88;19.05
64698;BME280;51124;53.394;-6.294;2023-07-20T11:10:15;101132.91;;;10.97;19.80
64698;BME280;51124;53.394;-6.294;2023-07-20T11:12:32;101140.49;;;7.76;21.33
64698;BME280;51124;53.394;-6.294;2023-07-20T11:15:00;101131.53;;;9.77;19.25
64698;BME280;51124;53.394;-6.294;2023-07-20T11:17:31;101123.50;;;10.06;19.02
64698;BME280;51124;53.394;-6.294;2023-07-20T11:20:00;101129.91;;;7.81;20.10
64698;BME280;51124;53.394;-6.294;2023-07-20T11:22:27;101123.01;;;9.58;19.84
64698;BME280;51124;53.394;-6.294;2023-07-20T11:24:57;101115.30;;;11.13;18.40
64698;BME280;51124;53.394;-6.294;2023-07-20T11:27:25;101116.28;;;9.58;18.94
64698;BME280;51124;53.394;-6.294;2023-07-20T11:29:52;101105.00;;;12.79;16.28
64698;BME280;51124;53.394;-6.294;2023-07-20T11:32:22;101105.30;;;10.48;16.55
64698;BME280;51124;53.394;-6.294;2023-07-20T11:34:50;101098.66;;;13.30;16.71
64698;BME280;51124;53.394;-6.294;2023-07-20T11:37:17;101087.60;;;16.13;16.11
64698;BME280;51124;53.394;-6.294;2023-07-20T11:39:45;101104.44;;;9.56;17.05
64698;BME280;51124;53.394;-6.294;2023-07-20T11:42:11;101100.92;;;11.12;16.35
64698;BME280;51124;53.394;-6.294;2023-07-20T11:44:36;101086.48;;;16.38;13.40
64698;BME280;51124;53.394;-6.294;2023-07-20T11:47:02;101094.12;;;13.61;13.87
64698;BME280;51124;53.394;-6.294;2023-07-20T11:49:26;101094.30;;;12.39;14.49
64698;BME280;51124;53.394;-6.294;2023-07-20T11:52:00;101091.04;;;13.72;14.61
64698;BME280;51124;53.394;-6.294;2023-07-20T11:54:34;101094.99;;;15.42;14.69
64698;BME280;51124;53.394;-6.294;2023-07-20T11:57:15;101089.96;;;16.36;15.09
64698;BME280;51124;53.394;-6.294;2023-07-20T11:59:52;101092.20;;;13.34;15.05
64698;BME280;51124;53.394;-6.294;2023-07-20T12:02:06;101098.35;;;12.05;16.48
64698;BME280;51124;53.394;-6.294;2023-07-20T12:04:39;101097.87;;;16.22;15.44
64698;BME280;51124;53.394;-6.294;2023-07-20T12:07:13;101096.17;;;15.26;15.65
64698;BME280;51124;53.394;-6.294;2023-07-20T12:10:03;101088.85;;;17.75;14.73
64698;BME280;51124;53.394;-6.294;2023-07-20T12:12:18;101093.06;;;15.11;15.65
64698;BME280;51124;53.394;-6.294;2023-07-20T12:14:44;101094.06;;;13.31;17.02
64698;BME280;51124;53.394;-6.294;2023-07-20T12:17:09;101089.09;;;15.61;16.33
64698;BME280;51124;53.394;-6.294;2023-07-20T12:19:39;101087.14;;;15.53;15.49
64698;BME280;51124;53.394;-6.294;2023-07-20T12:22:04;101079.13;;;17.53;14.64
64698;BME280;51124;53.394;-6.294;2023-07-20T12:24:31;101077.68;;;18.53;14.03
64698;BME280;51124;53.394;-6.294;2023-07-20T12:26:57;101080.58;;;17.48;13.58
64698;BME280;51124;53.394;-6.294;2023-07-20T12:29:23;101085.83;;;16.46;14.83
64698;BME280;51124;53.394;-6.294;2023-07-20T12:31:48;101098.70;;;10.41;19.95
64698;BME280;51124;53.394;-6.294;2023-07-20T12:34:15;101099.10;;;10.01;23.09
64698;BME280;51124;53.394;-6.294;2023-07-20T12:36:43;101095.77;;;12.13;22.72
64698;BME280;51124;53.394;-6.294;2023-07-20T12:39:10;101086.81;;;12.67;20.57
64698;BME280;51124;53.394;-6.294;2023-07-20T12:41:38;101090.13;;;11.81;21.87